Time;durP1;ratioP1;P1;durP2;ratioP2;P2;SDS_P1;SDS_P2;PMS_P1;PMS_P2;Temp;Humidity;BMP_temperature;BMP_pressure;BME280_temperature;BME280_humidity;BME280_pressure;Samples;Min_cycle;Max_cycle;Signal;HPM_P1;HPM_P2
2021/01/20 00:00:06;;;;;;;14.83;8.93;;;;;;;2.01;92.91;100630.47;6153284;28;20188;-72
2021/01/20 00:03:17;;;;;;;16.90;8.90;;;;;;;2.17;92.34;100630.50;6162103;28;20314;-74
2021/01/20 00:06:21;;;;;;;13.73;9.70;;;;;;;2.23;91.45;100629.84;6167760;28;20210;-74
2021/01/20 00:09:24;;;;;;;16.07;9.03;;;;;;;2.30;92.07;100624.59;6165651;28;20202;-74
2021/01/20 00:12:29;;;;;;;15.50;8.97;;;;;;;2.12;92.64;100626.63;6147614;28;20307;-74
2021/01/20 00:15:33;;;;;;;13.00;9.47;;;;;;;2.03;93.43;100623.06;6152414;28;20702;-74
2021/01/20 00:18:36;;;;;;;14.77;9.70;;;;;;;2.06;93.03;100622.75;6159173;28;20264;-75
2021/01/20 00:21:40;;;;;;;20.37;10.00;;;;;;;2.20;92.59;100619.41;6146377;28;20242;-74
2021/01/20 00:24:43;;;;;;;12.00;8.63;;;;;;;2.10;92.70;100618.72;6156961;28;20209;-74
2021/01/20 00:27:48;;;;;;;15.23;9.53;;;;;;;2.06;92.71;100611.97;6156611;28;20186;-73
2021/01/20 00:30:57;;;;;;;12.80;9.40;;;;;;;2.06;93.78;100613.81;6148349;28;20532;-74
2021/01/20 00:34:00;;;;;;;16.57;9.27;;;;;;;2.06;93.53;100601.22;6150241;28;20220;-73
2021/01/20 00:37:04;;;;;;;15.80;9.37;;;;;;;2.04;94.04;100608.63;6157793;28;20221;-72
2021/01/20 00:40:09;;;;;;;12.47;8.97;;;;;;;2.16;93.03;100601.03;6159172;28;20697;-74
2021/01/20 00:43:14;;;;;;;16.47;10.07;;;;;;;2.12;92.92;100600.56;6153194;28;20241;-73
2021/01/20 00:46:17;;;;;;;16.50;9.57;;;;;;;1.99;94.03;100584.06;6148044;28;20195;-73
2021/01/20 00:49:20;;;;;;;18.33;9.83;;;;;;;2.06;93.45;100579.69;6149547;28;20203;-72
2021/01/20 00:52:23;;;;;;;13.90;8.50;;;;;;;1.97;94.13;100591.47;6154142;28;20205;-73
2021/01/20 00:55:26;;;;;;;17.43;10.37;;;;;;;1.94;94.34;100578.34;6152848;28;20262;-74
2021/01/20 00:58:31;;;;;;;18.10;10.63;;;;;;;2.00;94.35;100593.84;6155534;28;20677;-72
2021/01/20 01:01:35;;;;;;;15.43;9.93;;;;;;;1.87;94.91;100574.66;6160064;28;20670;-72
2021/01/20 01:04:42;;;;;;;20.17;10.17;;;;;;;2.00;94.78;100574.16;6137650;28;20207;-72
2021/01/20 01:07:47;;;;;;;19.57;10.57;;;;;;;1.99;94.03;100578.69;6133261;28;20203;-72
2021/01/20 01:10:50;;;;;;;14.90;9.97;;;;;;;2.11;93.74;100581.88;6162051;28;20657;-72
2021/01/20 01:14:08;;;;;;;17.07;9.67;;;;;;;2.19;92.92;100582.72;6134750;28;20280;-72
2021/01/20 01:17:12;;;;;;;16.70;10.43;;;;;;;2.20;93.00;100581.72;6163938;28;20238;-72
2021/01/20 01:20:35;;;;;;;17.00;10.73;;;;;;;2.22;93.34;100566.22;6166483;28;20204;-72
2021/01/20 01:23:39;;;;;;;21.90;12.00;;;;;;;2.16;93.90;100569.59;6164007;28;20665;-73
2021/01/20 01:26:42;;;;;;;22.43;11.60;;;;;;;2.26;92.97;100564.88;6154669;28;20194;-72
2021/01/20 01:29:47;;;;;;;23.53;11.87;;;;;;;2.15;93.50;100562.56;6150682;28;20511;-72
2021/01/20 01:33:03;;;;;;;23.63;12.07;;;;;;;2.00;94.35;100563.41;6137074;28;20703;-71
2021/01/20 01:36:13;;;;;;;24.97;12.13;;;;;;;2.08;94.54;100553.44;6150744;28;20220;-73
2021/01/20 01:39:17;;;;;;;27.17;12.63;;;;;;;2.09;94.33;100560.53;6140207;28;20208;-71
2021/01/20 01:42:26;;;;;;;23.77;13.43;;;;;;;2.10;94.63;100547.91;6150707;28;20195;-73
2021/01/20 01:45:31;;;;;;;28.33;13.13;;;;;;;2.12;94.21;100544.03;6165374;28;20196;-73
2021/01/20 01:48:35;;;;;;;35.30;14.37;;;;;;;2.28;93.20;100535.94;6129993;28;20257;-73
2021/01/20 01:51:39;;;;;;;26.47;14.33;;;;;;;2.11;93.42;100547.72;6155328;28;20206;-72
2021/01/20 01:55:01;;;;;;;31.90;15.03;;;;;;;2.13;94.09;100548.41;6157484;28;20219;-73
2021/01/20 01:58:37;;;;;;;32.00;14.83;;;;;;;2.27;93.18;100545.03;6152787;28;20242;-72
2021/01/20 02:01:46;;;;;;;29.63;14.67;;;;;;;2.32;93.63;100539.13;6144351;28;20256;-72
2021/01/20 02:04:55;;;;;;;39.77;16.37;;;;;;;2.16;94.02;100545.38;6146918;28;20338;-73
2021/01/20 02:08:02;;;;;;;38.83;16.00;;;;;;;2.28;93.96;100538.66;6160399;28;21768;-72
2021/01/20 02:11:25;;;;;;;33.23;15.03;;;;;;;2.33;92.83;100533.59;6163058;28;20203;-72
2021/01/20 02:14:32;;;;;;;33.47;15.47;;;;;;;2.36;93.41;100533.22;6159939;28;20643;-73
2021/01/20 02:18:02;;;;;;;38.13;17.13;;;;;;;2.17;94.03;100532.75;6150721;28;20208;-72
2021/01/20 02:22:10;;;;;;;36.03;16.63;;;;;;;2.21;94.03;100534.94;6151700;28;20279;-72
2021/01/20 02:25:48;;;;;;;41.07;18.37;;;;;;;2.08;95.09;100528.41;6123209;28;20223;-72
2021/01/20 02:29:18;;;;;;;38.53;17.37;;;;;;;2.10;94.77;100527.22;6133498;28;20340;-72
2021/01/20 02:32:30;;;;;;;40.07;17.87;;;;;;;2.04;95.13;100527.91;6157668;28;20206;-72
2021/01/20 02:35:39;;;;;;;38.03;16.63;;;;;;;2.28;94.18;100525.19;6137521;28;20221;-72
2021/01/20 02:38:44;;;;;;;45.27;17.03;;;;;;;2.32;93.87;100521.13;6160502;28;20900;-71
2021/01/20 02:41:48;;;;;;;43.83;18.53;;;;;;;2.35;93.31;100526.16;6157449;28;20234;-73
2021/01/20 02:45:00;;;;;;;44.07;18.37;;;;;;;2.43;93.06;100528.84;6141408;28;20659;-75
2021/01/20 02:48:14;;;;;;;48.13;18.30;;;;;;;2.30;94.13;100523.16;6138748;28;20212;-72
2021/01/20 02:51:24;;;;;;;43.50;19.57;;;;;;;2.20;94.60;100517.13;6147700;28;20686;-72
2021/01/20 02:54:48;;;;;;;41.70;18.50;;;;;;;2.37;93.33;100531.38;6163152;28;20321;-73
2021/01/20 02:58:27;;;;;;;44.23;17.97;;;;;;;2.45;93.18;100529.50;6157106;28;20200;-73
2021/01/20 03:01:54;;;;;;;46.83;19.23;;;;;;;2.27;93.67;100526.19;6149732;28;20567;-72
2021/01/20 03:05:01;;;;;;;39.47;19.37;;;;;;;2.34;93.03;100524.47;6157701;28;20206;-72
2021/01/20 03:08:05;;;;;;;43.33;19.87;;;;;;;2.45;92.60;100531.34;6143336;28;20187;-72
2021/01/20 03:11:09;;;;;;;50.53;19.60;;;;;;;2.16;94.08;100526.53;6157690;28;20214;-73
2021/01/20 03:14:12;;;;;;;42.43;18.47;;;;;;;2.24;94.42;100522.97;6159888;28;20544;-74
2021/01/20 03:17:15;;;;;;;46.40;19.47;;;;;;;2.22;93.83;100517.78;6154723;28;20215;-73
2021/01/20 03:20:19;;;;;;;44.33;19.03;;;;;;;2.18;94.28;100523.69;6161038;28;20210;-72
2021/01/20 03:23:23;;;;;;;42.60;17.00;;;;;;;2.36;93.23;100527.84;6151417;28;20259;-72
2021/01/20 03:26:26;;;;;;;46.03;18.83;;;;;;;2.40;92.73;100518.41;6155651;28;20295;-72
2021/01/20 03:29:29;;;;;;;45.07;20.33;;;;;;;2.27;93.05;100518.09;6157612;28;20204;-72
2021/01/20 03:32:32;;;;;;;45.93;19.50;;;;;;;2.41;92.72;100519.28;6159342;28;20655;-73
2021/01/20 03:35:37;;;;;;;44.47;18.73;;;;;;;2.34;92.32;100519.09;6152880;28;20759;-74
2021/01/20 03:38:41;;;;;;;40.97;18.53;;;;;;;2.40;92.59;100523.81;6154810;28;20231;-74
2021/01/20 03:41:44;;;;;;;42.87;18.50;;;;;;;2.42;92.34;100511.00;6146838;28;20233;-73
2021/01/20 03:44:47;;;;;;;40.60;17.87;;;;;;;2.43;92.29;100518.09;6157876;28;20207;-73
2021/01/20 03:47:50;;;;;;;41.00;18.00;;;;;;;2.30;92.26;100511.53;6159663;28;20189;-72
2021/01/20 03:50:54;;;;;;;45.13;19.37;;;;;;;2.48;91.05;100526.47;6156759;28;20284;-72
2021/01/20 03:53:57;;;;;;;39.07;18.27;;;;;;;2.43;91.62;100522.63;6156071;28;20685;-74
2021/01/20 03:57:00;;;;;;;42.87;18.67;;;;;;;2.34;92.64;100519.09;6155363;28;20407;-73
2021/01/20 04:00:07;;;;;;;42.83;19.83;;;;;;;2.51;91.57;100515.38;6156730;28;20214;-73
2021/01/20 04:03:13;;;;;;;42.30;19.37;;;;;;;2.42;91.80;100515.53;6160938;28;20208;-73
2021/01/20 04:06:46;;;;;;;44.97;19.80;;;;;;;2.42;91.50;100500.22;6134667;28;20242;-72
2021/01/20 04:09:49;;;;;;;46.27;19.57;;;;;;;2.38;91.90;100504.31;6147554;28;20203;-72
2021/01/20 04:12:52;;;;;;;41.70;18.83;;;;;;;2.50;91.72;100513.69;6148395;28;20188;-72
2021/01/20 04:15:56;;;;;;;45.20;20.00;;;;;;;2.59;91.08;100500.19;6149111;28;20223;-73
2021/01/20 04:18:59;;;;;;;54.43;21.60;;;;;;;2.35;91.75;100499.25;6153147;28;20205;-73
2021/01/20 04:22:03;;;;;;;49.83;19.57;;;;;;;2.47;91.94;100503.25;6153580;28;20230;-73
2021/01/20 04:25:08;;;;;;;53.63;19.27;;;;;;;2.46;92.12;100512.34;6159907;28;20217;-74
2021/01/20 04:28:11;;;;;;;47.70;20.77;;;;;;;2.53;91.47;100502.56;6150700;28;20879;-72
2021/01/20 04:31:15;;;;;;;54.80;22.00;;;;;;;2.44;92.05;100498.19;6149327;28;20196;-72
2021/01/20 04:34:19;;;;;;;50.20;21.57;;;;;;;2.23;92.26;100495.25;6157613;28;20199;-73
2021/01/20 04:37:23;;;;;;;49.83;21.27;;;;;;;2.23;93.09;100483.63;6156828;28;20644;-73
2021/01/20 04:40:26;;;;;;;58.40;23.93;;;;;;;2.28;93.24;100487.50;6157805;28;20521;-75
2021/01/20 04:43:30;;;;;;;56.67;22.07;;;;;;;2.25;93.15;100493.22;6160034;28;20284;-73
2021/01/20 04:46:37;;;;;;;51.07;20.60;;;;;;;2.41;92.87;100495.03;6156845;28;20211;-73
2021/01/20 04:49:44;;;;;;;55.80;21.67;;;;;;;2.27;92.49;100496.56;6159115;28;20534;-73
2021/01/20 04:52:50;;;;;;;52.70;21.27;;;;;;;2.49;91.53;100489.63;6156340;28;20206;-73
2021/01/20 04:55:55;;;;;;;54.67;22.73;;;;;;;2.23;93.54;100486.34;6156385;28;20253;-72
2021/01/20 04:58:59;;;;;;;57.37;23.13;;;;;;;2.21;93.22;100481.09;6163547;28;20199;-73
2021/01/20 05:02:02;;;;;;;58.10;25.20;;;;;;;2.28;92.70;100484.81;6147035;28;20249;-73
2021/01/20 05:05:07;;;;;;;54.10;22.93;;;;;;;2.24;93.16;100469.16;6157901;28;20643;-74
2021/01/20 05:08:12;;;;;;;58.13;23.87;;;;;;;2.28;93.52;100470.50;6167498;28;20540;-73
2021/01/20 05:11:15;;;;;;;53.43;22.97;;;;;;;2.29;93.39;100467.63;6157295;28;20203;-74
2021/01/20 05:14:19;;;;;;;60.20;24.60;;;;;;;2.27;93.71;100464.28;6157115;28;20261;-72
2021/01/20 05:17:22;;;;;;;59.90;23.23;;;;;;;2.45;92.71;100467.59;6159603;28;20344;-72
2021/01/20 05:20:30;;;;;;;59.07;22.90;;;;;;;2.52;91.63;100463.19;6159198;28;20195;-72
2021/01/20 05:23:34;;;;;;;57.07;23.70;;;;;;;2.50;91.80;100459.81;6136301;28;20204;-72
2021/01/20 05:26:45;;;;;;;54.07;22.13;;;;;;;2.41;93.01;100460.84;6162491;28;20202;-73
2021/01/20 05:29:58;;;;;;;52.73;21.80;;;;;;;2.49;92.46;100458.13;6157503;28;20203;-73
2021/01/20 05:33:01;;;;;;;52.87;21.60;;;;;;;2.58;91.98;100450.03;6153735;28;20536;-72
2021/01/20 05:36:06;;;;;;;53.87;22.90;;;;;;;2.59;91.71;100457.09;6163604;28;20219;-74
2021/01/20 05:39:18;;;;;;;60.77;24.27;;;;;;;2.34;93.45;100443.72;6154987;28;20701;-73
2021/01/20 05:42:21;;;;;;;57.00;23.17;;;;;;;2.60;92.32;100448.00;6154199;28;20296;-74
2021/01/20 05:45:25;;;;;;;58.50;23.03;;;;;;;2.49;92.88;100451.94;6158594;28;20632;-74
2021/01/20 05:48:29;;;;;;;64.57;23.67;;;;;;;2.58;92.44;100455.41;6159943;28;20203;-72
2021/01/20 05:51:39;;;;;;;65.57;24.03;;;;;;;2.39;92.91;100451.25;6159727;28;20207;-73
2021/01/20 05:54:43;;;;;;;60.17;24.93;;;;;;;2.40;93.47;100453.81;6165886;28;20204;-72
2021/01/20 05:57:51;;;;;;;58.17;23.97;;;;;;;2.47;92.97;100454.78;6163184;28;20219;-73
2021/01/20 06:01:05;;;;;;;64.60;24.30;;;;;;;2.48;92.87;100445.69;6153909;28;20233;-72
2021/01/20 06:04:10;;;;;;;66.03;25.93;;;;;;;2.43;93.62;100448.06;6153822;28;20192;-72
2021/01/20 06:07:15;;;;;;;60.20;24.53;;;;;;;2.19;94.91;100458.06;6150408;28;20202;-73
2021/01/20 06:10:20;;;;;;;62.43;25.77;;;;;;;2.14;95.46;100441.59;6161865;28;20197;-72
2021/01/20 06:13:24;;;;;;;63.93;26.20;;;;;;;2.19;95.27;100444.59;6155664;28;20611;-74
2021/01/20 06:16:30;;;;;;;66.03;25.53;;;;;;;2.32;94.86;100434.97;6159316;28;20215;-73
2021/01/20 06:19:37;;;;;;;67.53;25.77;;;;;;;2.12;95.35;100444.47;6156736;28;20222;-73
2021/01/20 06:22:46;;;;;;;60.23;25.13;;;;;;;2.38;95.00;100445.06;6156708;28;20678;-72
2021/01/20 06:25:54;;;;;;;58.60;24.33;;;;;;;2.25;94.68;100439.38;6155166;28;20195;-73
2021/01/20 06:29:02;;;;;;;57.80;23.63;;;;;;;2.32;94.53;100440.38;6155247;28;20250;-74
2021/01/20 06:32:09;;;;;;;53.17;22.80;;;;;;;2.50;93.48;100442.81;6165344;28;20207;-73
2021/01/20 06:35:13;;;;;;;56.33;22.33;;;;;;;2.37;93.15;100435.31;6162185;28;20202;-74
2021/01/20 06:38:36;;;;;;;52.70;22.30;;;;;;;2.23;94.19;100444.13;6151901;28;20607;-74
2021/01/20 06:41:41;;;;;;;55.60;23.30;;;;;;;2.28;94.61;100441.75;6154113;28;20241;-74
2021/01/20 06:45:12;;;;;;;54.27;21.93;;;;;;;2.35;94.12;100440.03;6156260;28;20293;-72
2021/01/20 06:48:15;;;;;;;45.73;20.17;;;;;;;2.49;93.10;100435.78;6155041;28;20237;-72
2021/01/20 06:51:19;;;;;;;48.33;21.97;;;;;;;2.26;94.45;100435.66;6156324;28;20221;-72
2021/01/20 06:54:35;;;;;;;49.97;21.30;;;;;;;2.32;94.10;100434.97;6154252;28;20237;-73
2021/01/20 06:57:41;;;;;;;42.30;18.77;;;;;;;2.53;92.69;100432.56;6148138;28;20215;-73
2021/01/20 07:01:11;;;;;;;52.20;20.73;;;;;;;2.51;92.46;100439.97;6148998;28;20370;-73
2021/01/20 07:04:53;;;;;;;42.63;20.07;;;;;;;2.37;93.21;100435.31;6152801;28;20209;-73
2021/01/20 07:07:56;;;;;;;44.83;18.97;;;;;;;2.29;94.28;100440.72;6141976;28;20499;-73
2021/01/20 07:11:01;;;;;;;47.67;20.70;;;;;;;2.43;93.07;100437.31;6152501;28;20242;-72
2021/01/20 07:14:28;;;;;;;37.77;17.97;;;;;;;2.36;92.83;100430.91;6155217;28;20496;-73
2021/01/20 07:17:34;;;;;;;44.13;19.67;;;;;;;2.29;93.91;100424.56;6153791;28;20223;-72
2021/01/20 07:20:39;;;;;;;40.73;18.87;;;;;;;2.42;94.01;100432.91;6155790;28;20203;-72
2021/01/20 07:23:43;;;;;;;39.87;18.63;;;;;;;2.54;92.37;100428.81;6154793;28;20200;-72
2021/01/20 07:26:47;;;;;;;40.57;19.77;;;;;;;2.43;92.94;100437.31;6158090;28;20202;-74
2021/01/20 07:29:51;;;;;;;38.50;19.80;;;;;;;2.37;93.50;100432.59;6155762;28;20265;-72
2021/01/20 07:32:55;;;;;;;40.03;20.10;;;;;;;2.53;93.20;100432.56;6155258;28;20207;-72
2021/01/20 07:36:09;;;;;;;40.77;19.60;;;;;;;2.45;92.59;100434.44;6157841;28;20214;-72
2021/01/20 07:39:20;;;;;;;44.63;20.73;;;;;;;2.36;93.49;100425.53;6155802;28;23091;-73
2021/01/20 07:42:23;;;;;;;44.67;20.33;;;;;;;2.26;93.95;100424.91;6150840;28;20723;-73
2021/01/20 07:45:32;;;;;;;39.17;20.07;;;;;;;2.33;93.40;100431.28;6159190;28;20202;-71
2021/01/20 07:48:36;;;;;;;45.17;20.57;;;;;;;2.44;93.63;100422.81;6157231;28;20218;-71
2021/01/20 07:51:40;;;;;;;44.57;18.87;;;;;;;2.52;92.51;100425.47;6157674;28;20214;-72
2021/01/20 07:54:44;;;;;;;46.90;20.27;;;;;;;2.38;93.46;100428.91;6171178;28;20610;-72
2021/01/20 07:57:55;;;;;;;41.00;20.07;;;;;;;2.31;94.50;100425.22;6158800;28;20739;-74
2021/01/20 08:00:59;;;;;;;40.30;19.03;;;;;;;2.24;94.10;100421.53;6167060;28;20732;-73
2021/01/20 08:04:17;;;;;;;36.60;18.93;;;;;;;2.34;94.20;100426.72;6156558;28;20717;-72
2021/01/20 08:07:23;;;;;;;38.33;18.07;;;;;;;2.34;93.63;100422.19;6162660;28;20214;-73
2021/01/20 08:10:27;;;;;;;36.93;18.27;;;;;;;2.45;93.71;100419.13;6163420;28;20591;-75
2021/01/20 08:13:31;;;;;;;37.77;18.80;;;;;;;2.38;93.76;100417.31;6160164;28;20329;-73
2021/01/20 08:16:38;;;;;;;32.73;18.10;;;;;;;2.47;93.46;100417.09;6165664;28;20394;-74
2021/01/20 08:19:42;;;;;;;35.07;18.57;;;;;;;2.21;94.67;100405.75;6162181;28;20253;-74
2021/01/20 08:22:46;;;;;;;35.27;17.40;;;;;;;2.43;94.02;100410.38;6163017;28;20358;-75
2021/01/20 08:25:49;;;;;;;35.30;18.07;;;;;;;2.22;94.61;100412.81;6162337;28;20257;-75
2021/01/20 08:29:07;;;;;;;32.90;17.57;;;;;;;2.42;93.46;100403.31;6166452;28;20594;-74
2021/01/20 08:32:12;;;;;;;32.43;17.23;;;;;;;2.56;92.80;100403.59;6162454;28;20605;-74
2021/01/20 08:35:26;;;;;;;32.17;17.37;;;;;;;2.07;95.39;100403.78;6166587;28;20200;-73
2021/01/20 08:38:29;;;;;;;33.23;16.87;;;;;;;2.40;94.78;100399.97;6167040;28;20251;-74
2021/01/20 08:41:32;;;;;;;36.23;17.17;;;;;;;2.33;94.72;100398.97;6164738;28;20596;-73
2021/01/20 08:44:36;;;;;;;35.87;17.90;;;;;;;2.39;94.94;100392.88;6166061;28;20286;-73
2021/01/20 08:47:46;;;;;;;35.93;18.17;;;;;;;2.34;94.08;100395.25;6162064;28;20211;-72
2021/01/20 08:50:51;;;;;;;33.37;17.57;;;;;;;2.29;94.54;100394.94;6166904;28;20197;-73
2021/01/20 08:53:55;;;;;;;37.80;19.23;;;;;;;2.28;94.45;100395.97;6154178;28;20199;-75
2021/01/20 08:57:16;;;;;;;37.67;19.17;;;;;;;2.25;95.13;100380.16;6168987;28;20216;-72
2021/01/20 09:00:20;;;;;;;38.30;19.17;;;;;;;2.43;93.92;100388.00;6149957;28;20198;-73
2021/01/20 09:03:25;;;;;;;38.53;18.83;;;;;;;2.40;94.81;100378.41;6157137;28;20197;-74
2021/01/20 09:06:30;;;;;;;34.73;19.13;;;;;;;2.28;94.64;100379.81;6161010;28;20216;-74
2021/01/20 09:09:33;;;;;;;36.07;18.57;;;;;;;2.32;95.24;100373.06;6163742;28;20270;-74
2021/01/20 09:12:36;;;;;;;38.30;19.70;;;;;;;2.41;95.06;100374.69;6159676;28;20429;-72
2021/01/20 09:15:39;;;;;;;40.63;19.97;;;;;;;2.35;95.21;100364.66;6155711;28;20203;-72
2021/01/20 09:18:43;;;;;;;37.70;19.90;;;;;;;2.20;95.31;100355.63;6167549;28;21089;-73
2021/01/20 09:21:47;;;;;;;42.97;19.63;;;;;;;2.28;96.02;100363.69;6164475;28;20203;-72
2021/01/20 09:24:52;;;;;;;41.90;19.57;;;;;;;2.40;94.86;100364.97;6160839;28;20661;-72
2021/01/20 09:27:55;;;;;;;41.70;19.63;;;;;;;2.58;93.84;100358.47;6161030;28;20286;-74
2021/01/20 09:30:58;;;;;;;40.60;19.73;;;;;;;2.52;94.41;100360.84;6163047;28;20207;-72
2021/01/20 09:34:02;;;;;;;41.77;20.47;;;;;;;2.40;95.65;100362.25;6170942;28;20206;-73
2021/01/20 09:37:05;;;;;;;43.70;19.67;;;;;;;2.26;95.40;100354.09;6168546;28;20267;-72
2021/01/20 09:40:11;;;;;;;41.60;19.87;;;;;;;2.33;95.33;100350.53;6164423;28;20233;-72
2021/01/20 09:43:16;;;;;;;43.80;20.13;;;;;;;2.43;95.54;100351.16;6164612;28;20556;-73
2021/01/20 09:46:19;;;;;;;35.03;19.30;;;;;;;2.34;95.43;100351.34;6164259;28;20204;-75
2021/01/20 09:49:24;;;;;;;41.50;19.50;;;;;;;2.41;94.92;100342.38;6159410;28;20209;-74
2021/01/20 09:52:28;;;;;;;38.13;19.67;;;;;;;2.52;94.79;100344.69;6162856;28;20295;-74
2021/01/20 09:55:31;;;;;;;36.17;18.03;;;;;;;2.33;94.89;100339.75;6155444;28;20203;-73
2021/01/20 09:58:39;;;;;;;36.10;18.93;;;;;;;2.30;96.29;100340.09;6156985;28;20305;-75
2021/01/20 10:01:43;;;;;;;34.10;17.00;;;;;;;2.51;95.19;100331.41;6171807;28;20263;-73
2021/01/20 10:04:47;;;;;;;34.80;17.90;;;;;;;2.67;93.95;100325.09;6161079;28;21024;-74
2021/01/20 10:07:50;;;;;;;35.57;17.40;;;;;;;2.33;95.27;100312.84;6163977;28;20207;-73
2021/01/20 10:10:53;;;;;;;33.67;16.10;;;;;;;2.65;94.47;100310.94;6157113;28;20213;-72
2021/01/20 10:13:57;;;;;;;29.53;16.30;;;;;;;2.64;94.05;100309.28;6160620;28;20209;-73
2021/01/20 10:17:01;;;;;;;28.77;15.37;;;;;;;2.62;93.89;100305.94;6165434;28;20220;-73
2021/01/20 10:20:07;;;;;;;27.07;14.47;;;;;;;2.54;94.95;100302.25;6158504;28;20212;-73
2021/01/20 10:23:12;;;;;;;24.93;15.07;;;;;;;2.66;93.60;100291.09;6161334;28;20616;-73
2021/01/20 10:26:15;;;;;;;28.63;14.73;;;;;;;2.59;93.89;100295.50;6170087;28;20285;-73
2021/01/20 10:29:18;;;;;;;24.80;14.33;;;;;;;2.70;93.94;100292.38;6170206;28;20215;-73
2021/01/20 10:32:21;;;;;;;23.70;14.20;;;;;;;2.53;94.63;100287.13;6167297;28;20317;-72
2021/01/20 10:35:26;;;;;;;24.20;14.30;;;;;;;2.62;94.76;100287.09;6163072;28;20256;-73
2021/01/20 10:38:30;;;;;;;23.43;13.67;;;;;;;2.58;95.26;100280.34;6171046;28;20239;-74
2021/01/20 10:41:33;;;;;;;23.87;13.67;;;;;;;2.60;95.10;100276.47;6158148;28;20238;-73
2021/01/20 10:44:36;;;;;;;25.00;14.20;;;;;;;2.61;95.04;100282.69;6159811;28;20333;-73
2021/01/20 10:47:39;;;;;;;24.27;13.57;;;;;;;2.45;95.80;100284.50;6167536;28;20603;-73
2021/01/20 10:50:44;;;;;;;25.57;14.40;;;;;;;2.57;94.80;100278.72;6154912;28;20213;-73
2021/01/20 10:53:48;;;;;;;28.13;14.73;;;;;;;2.46;95.28;100270.03;6160646;28;20619;-73
2021/01/20 10:56:52;;;;;;;29.93;15.53;;;;;;;2.38;96.40;100275.47;6160524;28;20197;-73
2021/01/20 10:59:56;;;;;;;30.47;16.93;;;;;;;2.35;97.78;100262.34;6154187;28;20345;-74
2021/01/20 11:03:00;;;;;;;35.90;17.93;;;;;;;2.50;95.95;100260.56;6165266;28;20716;-72
2021/01/20 11:06:04;;;;;;;36.17;18.00;;;;;;;2.60;96.07;100259.47;6166795;28;20289;-73
2021/01/20 11:09:09;;;;;;;45.77;19.90;;;;;;;2.49;96.73;100264.25;6164868;28;20206;-73
2021/01/20 11:12:12;;;;;;;51.33;21.97;;;;;;;2.46;96.43;100264.63;6159761;28;20275;-74
2021/01/20 11:15:16;;;;;;;53.37;22.10;;;;;;;2.51;96.70;100246.09;6153665;28;20369;-74
2021/01/20 11:18:20;;;;;;;49.27;21.20;;;;;;;2.43;96.94;100248.84;6171255;28;20223;-75
2021/01/20 11:21:24;;;;;;;59.20;24.60;;;;;;;2.56;96.61;100236.63;6167264;28;20203;-73
2021/01/20 11:24:27;;;;;;;53.07;23.40;;;;;;;2.66;96.66;100232.66;6163544;28;20282;-74
2021/01/20 11:27:30;;;;;;;58.67;24.13;;;;;;;2.69;95.69;100226.09;6167878;28;20649;-74
2021/01/20 11:30:34;;;;;;;56.63;24.53;;;;;;;2.73;96.06;100222.84;6162153;28;20193;-73
2021/01/20 11:33:37;;;;;;;59.87;24.83;;;;;;;2.68;95.95;100210.94;6164129;28;20193;-73
2021/01/20 11:36:41;;;;;;;57.07;23.50;;;;;;;2.76;95.05;100227.03;6161398;28;20249;-73
2021/01/20 11:39:45;;;;;;;64.57;26.03;;;;;;;2.64;96.58;100212.31;6164181;28;20264;-74
2021/01/20 11:42:57;;;;;;;63.43;25.80;;;;;;;2.68;95.87;100210.94;6139480;28;20211;-74
2021/01/20 11:46:00;;;;;;;66.67;25.57;;;;;;;2.38;97.49;100208.16;6165576;28;20558;-73
2021/01/20 11:49:09;;;;;;;62.37;26.00;;;;;;;2.42;98.42;100206.75;6165016;28;20206;-74
2021/01/20 11:52:14;;;;;;;69.83;27.20;;;;;;;2.40;97.92;100203.44;6155818;28;20212;-74
2021/01/20 11:55:17;;;;;;;62.60;25.00;;;;;;;2.36;98.01;100187.81;6166049;28;20194;-74
2021/01/20 11:58:20;;;;;;;62.67;24.93;;;;;;;2.48;97.43;100199.81;6151971;28;20431;-74
2021/01/20 12:01:24;;;;;;;71.33;26.07;;;;;;;2.53;96.96;100194.75;6162815;28;20312;-74
2021/01/20 12:04:27;;;;;;;67.57;26.87;;;;;;;2.59;96.92;100187.78;6164507;28;20210;-74
2021/01/20 12:07:31;;;;;;;63.43;24.97;;;;;;;2.43;96.72;100186.91;6146487;28;20194;-75
2021/01/20 12:10:35;;;;;;;63.57;24.17;;;;;;;2.45;96.47;100186.72;6160440;28;20218;-72
2021/01/20 12:13:38;;;;;;;64.27;25.80;;;;;;;2.51;96.28;100175.25;6160872;28;20199;-72
2021/01/20 12:16:42;;;;;;;60.03;25.53;;;;;;;2.56;96.10;100172.00;6158312;28;20199;-71
2021/01/20 12:19:45;;;;;;;63.60;25.23;;;;;;;2.43;96.54;100172.63;6160039;28;20213;-72
2021/01/20 12:22:49;;;;;;;64.90;26.87;;;;;;;2.39;97.01;100155.13;6154201;28;20216;-72
2021/01/20 12:25:52;;;;;;;58.83;23.47;;;;;;;2.46;95.77;100162.31;6152042;28;20207;-72
2021/01/20 12:28:56;;;;;;;60.30;22.77;;;;;;;2.50;95.54;100154.69;6156529;28;20211;-73
2021/01/20 12:31:59;;;;;;;55.47;24.37;;;;;;;2.52;95.03;100150.81;6157559;28;20199;-73
2021/01/20 12:35:04;;;;;;;63.47;25.23;;;;;;;2.67;94.85;100141.94;6164991;28;20557;-72
2021/01/20 12:38:08;;;;;;;54.83;24.43;;;;;;;2.58;94.31;100137.63;6158000;28;20677;-73
2021/01/20 12:41:15;;;;;;;60.87;26.67;;;;;;;2.47;95.81;100145.13;6150319;28;20231;-73
2021/01/20 12:44:18;;;;;;;64.90;25.83;;;;;;;2.62;94.91;100133.56;6156515;28;20221;-72
2021/01/20 12:47:22;;;;;;;64.43;26.80;;;;;;;2.50;95.29;100128.63;6159980;28;20211;-73
2021/01/20 12:50:26;;;;;;;58.20;24.23;;;;;;;2.62;94.51;100128.19;6156175;28;20196;-72
2021/01/20 12:53:36;;;;;;;52.93;23.23;;;;;;;2.58;94.71;100126.88;6164913;28;20263;-72
2021/01/20 12:56:39;;;;;;;56.40;23.27;;;;;;;2.48;95.00;100110.97;6147151;28;20197;-72
2021/01/20 12:59:43;;;;;;;51.87;23.63;;;;;;;2.50;94.84;100115.16;6146181;28;20556;-72
2021/01/20 13:02:46;;;;;;;53.87;21.83;;;;;;;2.56;94.49;100107.38;6153812;28;20633;-74
2021/01/20 13:05:50;;;;;;;45.33;21.80;;;;;;;2.70;93.29;100098.47;6160879;28;20225;-73
2021/01/20 13:08:54;;;;;;;52.17;23.23;;;;;;;2.44;94.84;100088.13;6151431;28;20196;-72
2021/01/20 13:11:57;;;;;;;50.73;22.33;;;;;;;2.64;93.33;100093.81;6167918;28;20187;-73
2021/01/20 13:15:01;;;;;;;50.33;20.67;;;;;;;2.53;93.89;100093.25;6168529;28;20684;-72
2021/01/20 13:18:05;;;;;;;44.13;20.53;;;;;;;2.50;94.54;100082.84;6155476;28;20247;-72
2021/01/20 13:21:09;;;;;;;44.40;21.50;;;;;;;2.41;94.24;100075.84;6157886;28;20220;-72
2021/01/20 13:24:13;;;;;;;49.43;21.90;;;;;;;2.47;94.80;100082.38;6165320;28;20340;-72
2021/01/20 13:27:17;;;;;;;45.57;20.93;;;;;;;2.58;93.83;100078.41;6158606;28;20683;-74
2021/01/20 13:30:21;;;;;;;38.10;18.80;;;;;;;2.59;94.25;100074.69;6162573;28;20530;-73
2021/01/20 13:33:24;;;;;;;36.60;18.60;;;;;;;2.56;94.09;100064.28;6156561;28;20253;-72
2021/01/20 13:36:28;;;;;;;33.30;17.07;;;;;;;2.61;93.27;100061.88;6165818;28;20564;-73
2021/01/20 13:39:32;;;;;;;37.27;18.83;;;;;;;2.53;93.47;100054.72;6157095;28;20576;-73
2021/01/20 13:42:36;;;;;;;35.90;18.67;;;;;;;2.54;93.83;100062.59;6152298;28;20206;-73
2021/01/20 13:45:39;;;;;;;37.17;18.00;;;;;;;2.65;93.48;100049.69;6160409;28;20208;-73
2021/01/20 13:48:42;;;;;;;39.90;17.87;;;;;;;2.49;93.24;100048.84;6172926;28;20202;-73
2021/01/20 13:51:45;;;;;;;38.87;18.90;;;;;;;2.46;93.55;100054.63;6157958;28;20279;-73
2021/01/20 13:54:49;;;;;;;38.43;18.00;;;;;;;2.50;93.55;100049.69;6153029;28;20274;-73
2021/01/20 13:57:53;;;;;;;30.50;17.00;;;;;;;2.50;93.65;100039.78;6148029;28;20199;-73
2021/01/20 14:00:57;;;;;;;35.87;18.00;;;;;;;2.56;92.60;100031.97;6159182;28;20216;-73
2021/01/20 14:04:00;;;;;;;32.77;16.80;;;;;;;2.58;92.58;100038.00;6155395;28;20288;-72
2021/01/20 14:07:04;;;;;;;34.37;17.17;;;;;;;2.53;92.91;100027.78;6163109;28;20438;-72
2021/01/20 14:10:10;;;;;;;36.97;17.93;;;;;;;2.44;93.88;100023.50;6159963;28;20197;-72
2021/01/20 14:13:13;;;;;;;34.50;16.83;;;;;;;2.29;94.12;100020.81;6157735;28;20202;-73
2021/01/20 14:16:16;;;;;;;33.07;17.57;;;;;;;2.46;93.35;100016.94;6158800;28;20200;-72